Terminal Aerodrome Forecast
Issued by NWS

Home | Current Version | Previous Version | Text Only | Print | Product List | Glossary On
Versions: 1 2 3 4 5 6 7 8 9 10 11 12 13 14 15 16 17
000
FTUS44 KEPZ 240529
TAFDMN
TAF
KDMN 240529Z 2406/2506 32011G20KT P6SM FEW070 SCT120 SCT250
     FM240900 04018G28KT P6SM FEW060 BKN080 BKN150
     FM241600 09012G22KT P6SM SCT060 BKN080 BKN120
     FM242200 13012G22KT P6SM VCTS SCT060CB BKN080 BKN120
     FM250100 11012G22KT P6SM VCTS BKN050CB BKN080 OVC120=

USA.gov is the U.S. government's official web portal to all federal, state and local government web resources and services.